Aviation Digital Data Service (ADDS)

Output produced by METARs form (0826 UTC 17 November 2018)
found at http://www.aviationweather.gov/metar/data/
 
TAF KDAA 170100Z 1701/1807 27009KT 9999 FEW025 QNH2991INS 
     BECMG 1715/1716 31012G18KT 9999 FEW024 QNH3022INS 
     BECMG 1718/1719 VRB06KT 9999 FEW024 QNH3021INS 
     BECMG 1801/1802 VRB06KT 9999 SCT015 QNH3030INS TX07/1719Z TN02/1712Z LAST
NO AMDS AFT 1702 NEXT 1910
       
KDAB 170532Z 1706/1806 33006KT P6SM SKC 
     FM171700 04009KT P6SM FEW035 
     FM172300 02005KT P6SM FEW030
       
KDAG 170520Z 1706/1806 26004KT P6SM BKN200 
     FM172000 30006KT P6SM SCT250
       
KDAL 170534Z 1706/1806 18011KT P6SM SCT300 
     FM172300 16010KT P6SM BKN060
       
KDAN 170520Z 1706/1806 VRB04KT P6SM FEW250
       
KDAY 170526Z 1706/1806 24005KT P6SM OVC015 
     TEMPO 1709/1713 5SM BR OVC009 
     FM172100 23003KT P6SM BKN040 
     FM180300 04004KT P6SM OVC025
       
KDBQ 170657Z 1707/1806 VRB04KT 1 1/2SM -SN BR OVC003 
     FM171400 02009KT 4SM -SN BR OVC008 
     FM171600 01010KT 6SM BR OVC010 
     FM171900 01010KT P6SM OVC020
       
KDCA 170539Z 1706/1812 32008KT P6SM SCT045 SCT250 
     FM170900 31008KT P6SM SCT200 
     FM172000 30006KT P6SM SCT050 BKN200 
     FM180100 VRB04KT P6SM SCT050 BKN200 
     FM180800 00000KT P6SM BKN035 BKN200
       
KDDC 170535Z 1706/1806 23010KT P6SM SCT250 
     FM170900 01016G25KT P6SM BKN100 
     FM171100 01022G37KT P6SM BKN040 
     FM171300 02022G37KT P6SM BKN015 
     FM172000 02012G25KT P6SM OVC015 
     FM180100 03015KT P6SM BKN015
       
KDEC 170532Z 1706/1806 VRB03KT 4SM BR BKN120 
     FM171000 VRB04KT 2SM BR BKN008 
     FM171800 07006KT P6SM VCSH OVC012 
     FM180200 02008KT P6SM VCSH OVC008
       
KDEN 170535Z 1706/1812 33007KT P6SM BKN110 BKN200 
     FM170800 04010KT P6SM BKN015 OVC050 
     TEMPO 1711/1714 3SM -FZDZ BR BKN009 
     FM171400 07010KT 2SM -FZDZSN BR OVC006 
     FM172100 09010KT 1 1/2SM -SN BR OVC007 
     FM180600 03006KT 3SM -SN BR BKN012 OVC020 
     FM180900 VRB05KT P6SM SCT012 BKN030
       
KDET 170529Z 1706/1806 25008KT P6SM OVC035 
     FM171700 25008KT 6SM -SN BR OVC025 
     FM172100 29006KT P6SM OVC030 
     FM180000 33005KT P6SM BKN035 OVC045
       
KDFW 170534Z 1706/1812 19011KT P6SM SCT300 
     FM172300 16010KT P6SM BKN060 
     FM181000 33011KT 5SM -DZ OVC030
       
KDHN 170520Z 1706/1806 32004KT P6SM SKC 
     FM171400 02005KT P6SM SKC 
     FM172300 00000KT P6SM SKC
       
KDHT 170520Z 1706/1806 22007KT P6SM FEW250 
     FM171100 01025G33KT P6SM BKN015 
     FM172100 04014KT P6SM OVC015 
     FM180000 04013KT P6SM -FZDZSN OVC015
       
KDIK 170742Z 1708/1806 00000KT 4SM -SN BR OVC011 
     FM171100 33008KT P6SM BKN025 
     FM171800 26008KT P6SM SCT035 
     FM172300 24007KT P6SM SKC
       
TAF AMD KDLF 162246Z 1622/1724 14009KT 9999 SKC QNH3007INS 
     BECMG 1715/1716 13009KT 9999 SCT015 SCT250 QNH3001INS TX18/1622Z TN04/1712Z
LAST NO AMDS AFT 1623 NEXT 1910
       
KDLH 170520Z 1706/1806 34010G16KT P6SM -SN OVC025 
     FM170800 34008G16KT P6SM -SN BKN025 
     FM171100 33008G15KT P6SM SCT040 
     FM172000 30009KT P6SM SKC
       
KDLS 170520Z 1706/1806 VRB03KT P6SM SCT060 
     FM171000 VRB03KT P6SM SKC 
     FM171900 08006KT P6SM SKC
       
TAF KDMA 170607Z 1706/1812 VRB06KT 9999 SKC QNH3001INS 
     BECMG 1717/1718 22009KT 9999 FEW250 QNH3008INS 
     BECMG 1802/1803 VRB06KT 9999 FEW200 QNH3007INS TX21/1720Z TN05/1711Z
       
KDMN 170545Z 1706/1806 VRB05KT P6SM FEW250 
     FM171900 26010KT P6SM SCT250
       
KDNL 170533Z 1706/1806 VRB03KT P6SM FEW250
       
TAF KDOV 170800Z 1708/1814 28009KT 9999 FEW020 BKN040 QNH3010INS 
     BECMG 1714/1715 31012G18KT 9999 SKC QNH3023INS 
     BECMG 1720/1721 30006KT 9999 SKC QNH3022INS WND 01006KT AFT 1809 TX08/1719Z
TN01/1710Z
       
KDPA 170530Z 1706/1806 32006KT 5SM HZ SCT015 BKN035 
     TEMPO 1706/1708 3SM -SN BKN015 
     FM171100 01006KT 1 1/2SM -SN BR OVC010 
     TEMPO 1712/1715 1SM -SN BR OVC008 
     FM171700 02009KT 6SM -SN BR OVC012 
     FM180000 01007KT P6SM SCT015 BKN035
       
KDRO 170520Z 1706/1806 03004KT P6SM FEW250 
     FM172000 22006KT P6SM FEW110 FEW250 
     FM180100 27006KT P6SM FEW110 SCT250
       
KDRT 170546Z 1706/1806 12007KT P6SM BKN250
       
KDSM 170536Z 1706/1806 06008KT 6SM -RA SCT025 OVC070 
     FM170900 04010KT 6SM -RASN BR SCT010 OVC025 
     TEMPO 1709/1712 2SM -SN BR OVC008 
     FM171400 01013G21KT P6SM OVC015 
     FM171800 01012KT P6SM OVC035 
     FM180100 01011KT P6SM SCT035 BKN100
       
KDTW 170529Z 1706/1812 23008KT P6SM OVC030 
     FM171600 25008KT 6SM -SN BR OVC025 
     FM172100 29006KT P6SM OVC030 
     FM180000 33005KT P6SM BKN035 OVC045
       
KDUG 170523Z 1706/1806 35005KT P6SM BKN200 
     FM171000 VRB03KT P6SM BKN250 
     FM172000 20007KT P6SM BKN250
       
KDUJ 170540Z 1706/1806 26011KT 3SM BR OVC004 
     FM171200 26010KT 5SM BR OVC008 
     FM171800 27009KT P6SM OVC012 
     FM180000 27005KT 4SM BR OVC004 
     TEMPO 1802/1805 -SN OVC003
       
KDVL 170531Z 1706/1806 35012KT P6SM FEW020 
     FM171100 31009KT P6SM FEW120 
     FM171500 28009KT P6SM SKC 
     FM172200 25011KT P6SM SKC
       
TAF KDYS 170100Z 1701/1807 17009KT 9999 SKC QNH3001INS 
     BECMG 1716/1717 22010G15KT 9999 FEW180 QNH3000INS 
     BECMG 1719/1720 24012KT 9999 FEW100 QNH3000INS 
     BECMG 1806/1807 35009KT 9999 BKN015 QNH3016INS TX19/1721Z TN06/1713Z